Edford, Illinois
Current Conditions -  °F | °C
As of 6:52 AM on Wednesday 26 Nov 2014 (Local Time) from KMLI Reporting Station
Scattered Clouds Scattered Clouds  
Wind Chill: 10°   Ceiling: Unl
Heat Index: 19°   Visibility: 7mi
Dew Point: 16°   Wind: 7mph
Humidity: 88%   Direction: 80°E
Pressure: 30.07"   Gusts: NA
Location:  41.4828°N, 90.1801°W
Report Text: KMLI 261252Z 08006KT 7SM SCT110 M07/M09 A3007 RMK AO2 SLP193 T10721089 $
Loading
Personal Weather Stations






























Interactive Weather Map New forecast layout! Learn more

10-Day Weather Forecast

Advertisements
Track Severe Weather on mobile